sensor_id;sensor_type;location;lat;lon;timestamp;pressure;altitude;pressure_sealevel;temperature;humidity
64023;BME280;50264;52.088;5.296;2023-01-27T00:01:51;102523.0;;;5.98;89.53
64023;BME280;50264;52.088;5.296;2023-01-27T00:03:27;102531.0;;;6.02;89.07
64023;BME280;50264;52.088;5.296;2023-01-27T00:05:04;102522.0;;;6.0;88.67
64023;BME280;50264;52.088;5.296;2023-01-27T00:08:17;102530.0;;;6.07;87.83
64023;BME280;50264;52.088;5.296;2023-01-27T00:09:54;102519.0;;;6.07;88.46
64023;BME280;50264;52.088;5.296;2023-01-27T00:13:51;102524.0;;;6.06;88.69
64023;BME280;50264;52.088;5.296;2023-01-27T00:15:28;102522.0;;;6.03;88.18
64023;BME280;50264;52.088;5.296;2023-01-27T00:18:41;102517.0;;;5.92;88.5
64023;BME280;50264;52.088;5.296;2023-01-27T00:24:44;102520.0;;;5.93;88.31
64023;BME280;50264;52.088;5.296;2023-01-27T00:26:21;102518.0;;;5.89;88.17
64023;BME280;50264;52.088;5.296;2023-01-27T00:27:57;102516.00000000001;;;5.93;87.46
64023;BME280;50264;52.088;5.296;2023-01-27T00:33:32;102516.00000000001;;;5.83;87.41
64023;BME280;50264;52.088;5.296;2023-01-27T00:35:10;102514.00000000001;;;5.86;87.77
64023;BME280;50264;52.088;5.296;2023-01-27T00:36:48;102519.0;;;5.83;88.59
64023;BME280;50264;52.088;5.296;2023-01-27T00:38:26;102517.0;;;5.94;88.16
64023;BME280;50264;52.088;5.296;2023-01-27T00:41:40;102520.0;;;5.94;88.25
64023;BME280;50264;52.088;5.296;2023-01-27T00:43:17;102517.0;;;5.9;88.09
64023;BME280;50264;52.088;5.296;2023-01-27T00:45:57;102525.0;;;5.88;88.03
64023;BME280;50264;52.088;5.296;2023-01-27T00:47:34;102529.0;;;5.88;87.59
64023;BME280;50264;52.088;5.296;2023-01-27T00:49:12;102533.0;;;5.83;87.27
64023;BME280;50264;52.088;5.296;2023-01-27T00:50:48;102523.0;;;5.73;87.58
64023;BME280;50264;52.088;5.296;2023-01-27T00:54:02;102532.0;;;5.83;87.27
64023;BME280;50264;52.088;5.296;2023-01-27T00:55:38;102529.0;;;5.75;87.18
64023;BME280;50264;52.088;5.296;2023-01-27T00:57:16;102533.0;;;5.72;87.38
64023;BME280;50264;52.088;5.296;2023-01-27T01:00:28;102530.0;;;5.78;87.15
64023;BME280;50264;52.088;5.296;2023-01-27T01:02:04;102525.0;;;5.76;87.72
64023;BME280;50264;52.088;5.296;2023-01-27T01:03:42;102533.0;;;5.83;87.63
64023;BME280;50264;52.088;5.296;2023-01-27T01:05:18;102530.0;;;5.59;87.67
64023;BME280;50264;52.088;5.296;2023-01-27T01:08:32;102533.0;;;5.58;87.87
64023;BME280;50264;52.088;5.296;2023-01-27T01:10:09;102533.99999999999;;;5.71;87.52
64023;BME280;50264;52.088;5.296;2023-01-27T01:11:46;102541.00000000001;;;5.75;86.76
64023;BME280;50264;52.088;5.296;2023-01-27T01:14:58;102542.0;;;5.64;87.7
64023;BME280;50264;52.088;5.296;2023-01-27T01:16:34;102540.00000000001;;;5.58;87.59
64023;BME280;50264;52.088;5.296;2023-01-27T01:18:10;102538.00000000001;;;5.63;87.8
64023;BME280;50264;52.088;5.296;2023-01-27T01:21:23;102544.0;;;5.62;87.79
64023;BME280;50264;52.088;5.296;2023-01-27T01:23:00;102549.0;;;5.6;86.9
64023;BME280;50264;52.088;5.296;2023-01-27T01:24:36;102548.0;;;5.64;87.73
64023;BME280;50264;52.088;5.296;2023-01-27T01:27:51;102550.0;;;5.63;87.37
64023;BME280;50264;52.088;5.296;2023-01-27T01:29:27;102543.0;;;5.67;87.35
64023;BME280;50264;52.088;5.296;2023-01-27T01:31:07;102546.0;;;5.62;86.15
64023;BME280;50264;52.088;5.296;2023-01-27T01:32:44;102551.0;;;5.6;86.81
64023;BME280;50264;52.088;5.296;2023-01-27T01:36:02;102549.0;;;5.58;87.04
64023;BME280;50264;52.088;5.296;2023-01-27T01:37:39;102551.0;;;5.63;86.88
64023;BME280;50264;52.088;5.296;2023-01-27T01:39:15;102551.0;;;5.63;87.65
64023;BME280;50264;52.088;5.296;2023-01-27T01:42:46;102551.0;;;5.64;87.08
64023;BME280;50264;52.088;5.296;2023-01-27T01:44:26;102553.0;;;5.67;87.63
64023;BME280;50264;52.088;5.296;2023-01-27T01:46:04;102550.0;;;5.63;87.61
64023;BME280;50264;52.088;5.296;2023-01-27T01:47:40;102548.0;;;5.53;87.16
64023;BME280;50264;52.088;5.296;2023-01-27T01:49:18;102557.0;;;5.38;87.69
64023;BME280;50264;52.088;5.296;2023-01-27T01:52:38;102557.0;;;5.5;87.76
64023;BME280;50264;52.088;5.296;2023-01-27T01:54:17;102552.0;;;5.5;87.35
64023;BME280;50264;52.088;5.296;2023-01-27T01:55:55;102554.0;;;5.49;88.28
64023;BME280;50264;52.088;5.296;2023-01-27T01:59:14;102558.99999999999;;;5.54;88.65
64023;BME280;50264;52.088;5.296;2023-01-27T02:00:51;102558.99999999999;;;5.46;87.78
64023;BME280;50264;52.088;5.296;2023-01-27T02:02:28;102551.0;;;5.34;88.11
64023;BME280;50264;52.088;5.296;2023-01-27T02:04:08;102572.0;;;5.43;87.28
64023;BME280;50264;52.088;5.296;2023-01-27T02:07:32;102558.99999999999;;;5.48;87.1
64023;BME280;50264;52.088;5.296;2023-01-27T02:09:11;102558.0;;;5.48;87.17
64023;BME280;50264;52.088;5.296;2023-01-27T02:10:48;102564.00000000001;;;5.31;85.54
64023;BME280;50264;52.088;5.296;2023-01-27T02:12:24;102564.00000000001;;;5.39;86.25
64023;BME280;50264;52.088;5.296;2023-01-27T02:15:38;102570.0;;;5.47;86.49
64023;BME280;50264;52.088;5.296;2023-01-27T02:17:15;102574.0;;;5.48;85.56
64023;BME280;50264;52.088;5.296;2023-01-27T02:22:19;102566.00000000001;;;5.33;84.88
64023;BME280;50264;52.088;5.296;2023-01-27T02:24:00;102567.0;;;5.31;85.55
64023;BME280;50264;52.088;5.296;2023-01-27T02:25:46;102561.99999999999;;;5.39;85.85
64023;BME280;50264;52.088;5.296;2023-01-27T02:27:23;102567.0;;;5.49;85.67
64023;BME280;50264;52.088;5.296;2023-01-27T02:29:03;102568.0;;;5.45;85.15
64023;BME280;50264;52.088;5.296;2023-01-27T02:32:24;102561.99999999999;;;5.4;85.46
64023;BME280;50264;52.088;5.296;2023-01-27T02:34:03;102567.0;;;5.3;85.72
64023;BME280;50264;52.088;5.296;2023-01-27T02:35:45;102567.0;;;5.29;85.87
64023;BME280;50264;52.088;5.296;2023-01-27T02:37:27;102567.0;;;5.32;85.6
64023;BME280;50264;52.088;5.296;2023-01-27T02:40:47;102572.0;;;5.32;86.22
64023;BME280;50264;52.088;5.296;2023-01-27T02:42:27;102579.0;;;5.35;86.66
64023;BME280;50264;52.088;5.296;2023-01-27T02:44:04;102579.0;;;5.4;86.42
64023;BME280;50264;52.088;5.296;2023-01-27T02:47:17;102573.0;;;5.31;86.62
64023;BME280;50264;52.088;5.296;2023-01-27T02:48:53;102578.0;;;5.27;87.13
64023;BME280;50264;52.088;5.296;2023-01-27T02:50:31;102578.0;;;5.17;86.71
64023;BME280;50264;52.088;5.296;2023-01-27T02:52:07;102582.0;;;5.22;87.0
64023;BME280;50264;52.088;5.296;2023-01-27T02:55:21;102581.0;;;5.29;86.77
64023;BME280;50264;52.088;5.296;2023-01-27T02:56:58;102584.99999999999;;;5.27;87.03
64023;BME280;50264;52.088;5.296;2023-01-27T02:58:34;102589.00000000001;;;5.26;87.26
64023;BME280;50264;52.088;5.296;2023-01-27T03:01:49;102586.99999999999;;;5.4;87.13
64023;BME280;50264;52.088;5.296;2023-01-27T03:03:25;102581.0;;;5.27;86.82
64023;BME280;50264;52.088;5.296;2023-01-27T03:05:01;102592.0;;;5.26;87.37
64023;BME280;50264;52.088;5.296;2023-01-27T03:08:14;102592.0;;;5.17;87.74
64023;BME280;50264;52.088;5.296;2023-01-27T03:09:50;102604.0;;;5.12;88.05
64023;BME280;50264;52.088;5.296;2023-01-27T03:12:30;102598.0;;;5.13;87.75
64023;BME280;50264;52.088;5.296;2023-01-27T03:14:07;102601.0;;;5.14;88.48
64023;BME280;50264;52.088;5.296;2023-01-27T03:19:52;102606.0;;;5.12;88.22
64023;BME280;50264;52.088;5.296;2023-01-27T03:21:28;102603.0;;;5.15;87.9
64023;BME280;50264;52.088;5.296;2023-01-27T03:24:41;102606.0;;;5.12;87.06
64023;BME280;50264;52.088;5.296;2023-01-27T03:26:17;102607.0;;;5.15;87.91
64023;BME280;50264;52.088;5.296;2023-01-27T03:27:54;102608.99999999999;;;5.08;88.1
64023;BME280;50264;52.088;5.296;2023-01-27T03:31:41;102607.0;;;5.14;87.59
64023;BME280;50264;52.088;5.296;2023-01-27T03:33:17;102601.0;;;5.14;88.06
64023;BME280;50264;52.088;5.296;2023-01-27T03:34:54;102609.99999999999;;;5.17;87.29
64023;BME280;50264;52.088;5.296;2023-01-27T03:47:33;102608.99999999999;;;5.03;87.45
64023;BME280;50264;52.088;5.296;2023-01-27T03:49:09;102616.00000000001;;;5.04;86.88
64023;BME280;50264;52.088;5.296;2023-01-27T03:50:56;102617.0;;;5.07;88.0
64023;BME280;50264;52.088;5.296;2023-01-27T03:54:08;102619.0;;;5.08;88.08
64023;BME280;50264;52.088;5.296;2023-01-27T03:55:46;102613.00000000001;;;4.95;87.4
64023;BME280;50264;52.088;5.296;2023-01-27T03:57:22;102620.0;;;5.12;87.27
64023;BME280;50264;52.088;5.296;2023-01-27T03:58:58;102618.0;;;5.07;86.19
64023;BME280;50264;52.088;5.296;2023-01-27T04:06:53;102627.0;;;5.05;86.0
64023;BME280;50264;52.088;5.296;2023-01-27T04:08:29;102619.0;;;5.03;86.48
64023;BME280;50264;52.088;5.296;2023-01-27T04:10:06;102621.0;;;5.01;85.66
64023;BME280;50264;52.088;5.296;2023-01-27T04:11:59;102626.0;;;5.17;85.75
64023;BME280;50264;52.088;5.296;2023-01-27T04:13:38;102622.0;;;5.15;85.68
64023;BME280;50264;52.088;5.296;2023-01-27T04:16:54;102620.0;;;5.13;85.35
64023;BME280;50264;52.088;5.296;2023-01-27T04:18:32;102629.0;;;5.12;85.93
64023;BME280;50264;52.088;5.296;2023-01-27T04:20:09;102622.0;;;4.93;83.78
64023;BME280;50264;52.088;5.296;2023-01-27T04:23:23;102634.99999999999;;;4.96;84.96
64023;BME280;50264;52.088;5.296;2023-01-27T04:24:59;102631.0;;;5.03;84.43
64023;BME280;50264;52.088;5.296;2023-01-27T04:26:35;102633.99999999999;;;5.08;84.86
64023;BME280;50264;52.088;5.296;2023-01-27T04:29:47;102638.00000000001;;;5.13;85.01
64023;BME280;50264;52.088;5.296;2023-01-27T04:31:24;102638.00000000001;;;5.16;84.21
64023;BME280;50264;52.088;5.296;2023-01-27T04:33:03;102641.00000000001;;;5.15;83.82
64023;BME280;50264;52.088;5.296;2023-01-27T04:34:40;102642.0;;;5.2;83.98
64023;BME280;50264;52.088;5.296;2023-01-27T04:37:53;102643.0;;;5.29;83.2
64023;BME280;50264;52.088;5.296;2023-01-27T04:39:29;102643.0;;;5.27;84.45
64023;BME280;50264;52.088;5.296;2023-01-27T04:41:06;102647.0;;;5.34;84.02
64023;BME280;50264;52.088;5.296;2023-01-27T04:44:20;102649.0;;;5.3;84.48
64023;BME280;50264;52.088;5.296;2023-01-27T04:45:56;102649.0;;;5.25;84.66
64023;BME280;50264;52.088;5.296;2023-01-27T04:47:32;102647.0;;;5.32;84.11
64023;BME280;50264;52.088;5.296;2023-01-27T04:50:45;102647.0;;;5.31;84.3
64023;BME280;50264;52.088;5.296;2023-01-27T04:52:21;102649.0;;;5.25;83.5
64023;BME280;50264;52.088;5.296;2023-01-27T04:53:58;102647.0;;;5.31;84.05
64023;BME280;50264;52.088;5.296;2023-01-27T04:55:34;102653.0;;;5.27;82.19
64023;BME280;50264;52.088;5.296;2023-01-27T04:58:47;102644.0;;;5.37;82.51
64023;BME280;50264;52.088;5.296;2023-01-27T05:00:24;102649.0;;;5.47;82.1
64023;BME280;50264;52.088;5.296;2023-01-27T05:02:03;102647.0;;;5.4;82.72
64023;BME280;50264;52.088;5.296;2023-01-27T05:05:15;102643.0;;;5.36;83.72
64023;BME280;50264;52.088;5.296;2023-01-27T05:06:51;102651.0;;;5.36;82.65
64023;BME280;50264;52.088;5.296;2023-01-27T05:08:29;102646.0;;;5.48;82.97
64023;BME280;50264;52.088;5.296;2023-01-27T05:11:44;102646.0;;;5.44;82.87
64023;BME280;50264;52.088;5.296;2023-01-27T05:13:20;102650.0;;;5.41;83.37
64023;BME280;50264;52.088;5.296;2023-01-27T05:14:56;102650.0;;;5.37;82.69
64023;BME280;50264;52.088;5.296;2023-01-27T05:16:33;102655.0;;;5.36;83.79
64023;BME280;50264;52.088;5.296;2023-01-27T05:19:45;102650.0;;;5.42;82.93
64023;BME280;50264;52.088;5.296;2023-01-27T05:21:23;102658.0;;;5.42;82.42
64023;BME280;50264;52.088;5.296;2023-01-27T05:23:34;102658.0;;;5.41;83.62
64023;BME280;50264;52.088;5.296;2023-01-27T05:25:42;102666.00000000001;;;5.25;83.29
64023;BME280;50264;52.088;5.296;2023-01-27T05:27:19;102667.0;;;5.41;82.64
64023;BME280;50264;52.088;5.296;2023-01-27T05:30:33;102670.0;;;5.37;82.04
64023;BME280;50264;52.088;5.296;2023-01-27T05:32:09;102670.0;;;5.35;81.8
64023;BME280;50264;52.088;5.296;2023-01-27T05:33:47;102677.0;;;5.43;82.99
64023;BME280;50264;52.088;5.296;2023-01-27T05:35:23;102676.0;;;5.51;80.86
64023;BME280;50264;52.088;5.296;2023-01-27T05:38:36;102672.0;;;5.39;83.26
64023;BME280;50264;52.088;5.296;2023-01-27T05:40:12;102669.0;;;5.41;83.44
64023;BME280;50264;52.088;5.296;2023-01-27T05:41:49;102674.0;;;5.4;82.7
64023;BME280;50264;52.088;5.296;2023-01-27T05:45:03;102672.0;;;5.45;82.16
64023;BME280;50264;52.088;5.296;2023-01-27T05:46:40;102673.0;;;5.42;82.24
64023;BME280;50264;52.088;5.296;2023-01-27T05:48:17;102678.0;;;5.44;81.42
64023;BME280;50264;52.088;5.296;2023-01-27T05:49:53;102673.0;;;5.41;82.11
64023;BME280;50264;52.088;5.296;2023-01-27T05:53:08;102681.0;;;5.41;80.69
64023;BME280;50264;52.088;5.296;2023-01-27T05:54:44;102678.0;;;5.42;81.38
64023;BME280;50264;52.088;5.296;2023-01-27T05:56:22;102674.0;;;5.42;82.29
64023;BME280;50264;52.088;5.296;2023-01-27T05:59:34;102679.0;;;5.37;81.66
64023;BME280;50264;52.088;5.296;2023-01-27T06:01:13;102692.0;;;5.39;82.41
64023;BME280;50264;52.088;5.296;2023-01-27T06:02:49;102690.00000000001;;;5.47;82.68
64023;BME280;50264;52.088;5.296;2023-01-27T06:06:03;102693.0;;;5.43;81.91
64023;BME280;50264;52.088;5.296;2023-01-27T06:07:40;102696.0;;;5.55;82.01
64023;BME280;50264;52.088;5.296;2023-01-27T06:09:17;102695.0;;;5.46;82.07
64023;BME280;50264;52.088;5.296;2023-01-27T06:10:53;102696.0;;;5.5;81.8
64023;BME280;50264;52.088;5.296;2023-01-27T06:14:05;102696.0;;;5.51;81.09
64023;BME280;50264;52.088;5.296;2023-01-27T06:15:43;102699.0;;;5.49;81.64
64023;BME280;50264;52.088;5.296;2023-01-27T06:17:20;102703.0;;;5.54;81.45
64023;BME280;50264;52.088;5.296;2023-01-27T06:20:34;102711.99999999999;;;5.48;81.45
64023;BME280;50264;52.088;5.296;2023-01-27T06:22:10;102700.0;;;5.42;81.66
64023;BME280;50264;52.088;5.296;2023-01-27T06:23:46;102703.0;;;5.24;82.04
64023;BME280;50264;52.088;5.296;2023-01-27T06:25:23;102705.0;;;5.25;82.32
64023;BME280;50264;52.088;5.296;2023-01-27T06:28:36;102709.99999999999;;;5.33;81.73
64023;BME280;50264;52.088;5.296;2023-01-27T06:31:49;102717.0;;;5.25;81.37
64023;BME280;50264;52.088;5.296;2023-01-27T06:35:02;102720.0;;;5.35;81.72
64023;BME280;50264;52.088;5.296;2023-01-27T06:36:39;102717.0;;;5.34;80.94
64023;BME280;50264;52.088;5.296;2023-01-27T06:38:15;102724.0;;;5.35;80.53
64023;BME280;50264;52.088;5.296;2023-01-27T06:41:28;102726.0;;;5.32;81.72
64023;BME280;50264;52.088;5.296;2023-01-27T06:43:10;102729.0;;;5.39;80.83
64023;BME280;50264;52.088;5.296;2023-01-27T06:44:46;102729.0;;;5.44;79.98
64023;BME280;50264;52.088;5.296;2023-01-27T06:46:22;102726.0;;;5.4;80.27
64023;BME280;50264;52.088;5.296;2023-01-27T06:49:36;102728.0;;;5.34;79.8
64023;BME280;50264;52.088;5.296;2023-01-27T06:51:12;102725.0;;;5.5;79.45
64023;BME280;50264;52.088;5.296;2023-01-27T06:52:50;102721.0;;;5.44;80.17
64023;BME280;50264;52.088;5.296;2023-01-27T06:56:04;102721.0;;;5.33;79.58
64023;BME280;50264;52.088;5.296;2023-01-27T06:57:40;102719.0;;;5.36;79.94
64023;BME280;50264;52.088;5.296;2023-01-27T06:59:16;102723.0;;;5.36;79.86
64023;BME280;50264;52.088;5.296;2023-01-27T07:02:30;102724.0;;;5.36;79.94
64023;BME280;50264;52.088;5.296;2023-01-27T07:04:06;102724.0;;;5.27;78.5
64023;BME280;50264;52.088;5.296;2023-01-27T07:05:42;102724.0;;;5.2;78.64
64023;BME280;50264;52.088;5.296;2023-01-27T07:07:19;102722.0;;;5.14;80.25
64023;BME280;50264;52.088;5.296;2023-01-27T07:10:31;102726.0;;;5.25;79.47
64023;BME280;50264;52.088;5.296;2023-01-27T07:12:07;102725.0;;;5.17;80.33
64023;BME280;50264;52.088;5.296;2023-01-27T07:13:43;102725.0;;;5.13;78.63
64023;BME280;50264;52.088;5.296;2023-01-27T07:16:56;102727.0;;;5.07;79.11
64023;BME280;50264;52.088;5.296;2023-01-27T07:18:32;102729.0;;;5.21;78.72
64023;BME280;50264;52.088;5.296;2023-01-27T07:20:11;102733.0;;;5.17;78.86
64023;BME280;50264;52.088;5.296;2023-01-27T07:23:24;102730.0;;;5.27;78.17
64023;BME280;50264;52.088;5.296;2023-01-27T07:25:00;102730.0;;;5.28;78.83
64023;BME280;50264;52.088;5.296;2023-01-27T07:26:36;102729.0;;;5.12;78.88
64023;BME280;50264;52.088;5.296;2023-01-27T07:28:13;102725.0;;;5.04;78.58
64023;BME280;50264;52.088;5.296;2023-01-27T07:31:26;102725.0;;;5.12;79.22
64023;BME280;50264;52.088;5.296;2023-01-27T07:33:03;102731.0;;;5.12;78.84
64023;BME280;50264;52.088;5.296;2023-01-27T07:34:40;102728.0;;;5.11;78.97
64023;BME280;50264;52.088;5.296;2023-01-27T07:37:55;102733.99999999999;;;5.15;78.61
64023;BME280;50264;52.088;5.296;2023-01-27T07:39:32;102733.99999999999;;;5.15;78.63
64023;BME280;50264;52.088;5.296;2023-01-27T07:41:09;102734.99999999999;;;5.12;78.86
64023;BME280;50264;52.088;5.296;2023-01-27T07:44:21;102739.00000000001;;;5.21;77.19
64023;BME280;50264;52.088;5.296;2023-01-27T07:45:57;102740.00000000001;;;5.18;78.39
64023;BME280;50264;52.088;5.296;2023-01-27T07:47:33;102742.0;;;5.14;79.69
64023;BME280;50264;52.088;5.296;2023-01-27T07:49:11;102744.0;;;5.07;78.72
64023;BME280;50264;52.088;5.296;2023-01-27T07:52:24;102742.0;;;5.07;80.37
64023;BME280;50264;52.088;5.296;2023-01-27T07:54:01;102749.0;;;5.03;79.8
64023;BME280;50264;52.088;5.296;2023-01-27T07:55:40;102757.0;;;4.88;79.24
64023;BME280;50264;52.088;5.296;2023-01-27T07:58:53;102756.0;;;4.97;79.25
64023;BME280;50264;52.088;5.296;2023-01-27T08:00:29;102756.0;;;5.01;79.38
64023;BME280;50264;52.088;5.296;2023-01-27T08:02:07;102763.00000000001;;;5.05;77.53
64023;BME280;50264;52.088;5.296;2023-01-27T08:03:44;102763.00000000001;;;4.97;77.03
64023;BME280;50264;52.088;5.296;2023-01-27T08:06:57;102763.00000000001;;;5.07;79.27
64023;BME280;50264;52.088;5.296;2023-01-27T08:08:34;102767.0;;;5.01;77.77
64023;BME280;50264;52.088;5.296;2023-01-27T08:10:11;102767.0;;;5.09;78.67
64023;BME280;50264;52.088;5.296;2023-01-27T08:13:23;102767.0;;;5.07;79.31
64023;BME280;50264;52.088;5.296;2023-01-27T08:15:00;102772.0;;;4.97;79.17
64023;BME280;50264;52.088;5.296;2023-01-27T08:16:36;102767.0;;;4.91;79.22
64023;BME280;50264;52.088;5.296;2023-01-27T08:19:51;102770.0;;;4.87;79.58
64023;BME280;50264;52.088;5.296;2023-01-27T08:21:31;102770.0;;;4.76;77.77
64023;BME280;50264;52.088;5.296;2023-01-27T08:23:08;102771.0;;;4.87;78.25
64023;BME280;50264;52.088;5.296;2023-01-27T08:24:44;102765.00000000001;;;4.72;79.16
64023;BME280;50264;52.088;5.296;2023-01-27T08:27:56;102767.0;;;4.64;79.58
64023;BME280;50264;52.088;5.296;2023-01-27T08:29:32;102774.0;;;4.66;79.94
64023;BME280;50264;52.088;5.296;2023-01-27T08:31:11;102775.0;;;4.62;81.66
64023;BME280;50264;52.088;5.296;2023-01-27T08:34:25;102770.0;;;4.62;80.28
64023;BME280;50264;52.088;5.296;2023-01-27T08:36:02;102772.0;;;4.74;79.94
64023;BME280;50264;52.088;5.296;2023-01-27T08:37:40;102770.0;;;4.74;80.36
64023;BME280;50264;52.088;5.296;2023-01-27T08:40:52;102768.0;;;4.82;80.47
64023;BME280;50264;52.088;5.296;2023-01-27T08:42:29;102772.0;;;4.82;81.84
64023;BME280;50264;52.088;5.296;2023-01-27T08:44:05;102772.0;;;4.76;80.2
64023;BME280;50264;52.088;5.296;2023-01-27T08:45:42;102777.0;;;4.8;80.59
64023;BME280;50264;52.088;5.296;2023-01-27T08:48:54;102779.0;;;4.84;80.75
64023;BME280;50264;52.088;5.296;2023-01-27T08:50:31;102779.0;;;4.87;80.53
64023;BME280;50264;52.088;5.296;2023-01-27T08:52:07;102781.0;;;4.91;79.84
64023;BME280;50264;52.088;5.296;2023-01-27T08:55:20;102776.0;;;4.91;79.8
64023;BME280;50264;52.088;5.296;2023-01-27T08:56:57;102780.0;;;4.8;79.83
64023;BME280;50264;52.088;5.296;2023-01-27T08:58:33;102781.0;;;4.88;79.67
64023;BME280;50264;52.088;5.296;2023-01-27T09:01:47;102781.0;;;4.88;80.99
64023;BME280;50264;52.088;5.296;2023-01-27T09:03:25;102784.99999999999;;;4.82;80.13
64023;BME280;50264;52.088;5.296;2023-01-27T09:05:03;102789.00000000001;;;4.86;80.83
64023;BME280;50264;52.088;5.296;2023-01-27T09:06:40;102794.0;;;4.74;81.03
64023;BME280;50264;52.088;5.296;2023-01-27T09:09:52;102800.0;;;4.78;80.27
64023;BME280;50264;52.088;5.296;2023-01-27T09:11:28;102802.0;;;4.87;80.59
64023;BME280;50264;52.088;5.296;2023-01-27T09:13:06;102807.0;;;4.91;79.88
64023;BME280;50264;52.088;5.296;2023-01-27T09:16:19;102814.00000000001;;;4.97;80.02
64023;BME280;50264;52.088;5.296;2023-01-27T09:17:56;102817.0;;;4.95;79.91
64023;BME280;50264;52.088;5.296;2023-01-27T09:19:32;102817.0;;;4.99;80.33
64023;BME280;50264;52.088;5.296;2023-01-27T09:21:09;102817.0;;;5.0;79.94
64023;BME280;50264;52.088;5.296;2023-01-27T09:24:21;102814.00000000001;;;4.93;78.73
64023;BME280;50264;52.088;5.296;2023-01-27T09:25:57;102816.00000000001;;;5.0;80.36
64023;BME280;50264;52.088;5.296;2023-01-27T09:27:33;102815.00000000001;;;5.07;79.17
64023;BME280;50264;52.088;5.296;2023-01-27T09:30:47;102817.0;;;5.07;79.97
64023;BME280;50264;52.088;5.296;2023-01-27T09:32:23;102821.0;;;5.12;79.27
64023;BME280;50264;52.088;5.296;2023-01-27T09:33:59;102827.0;;;5.14;79.16
64023;BME280;50264;52.088;5.296;2023-01-27T09:37:18;102826.0;;;5.17;79.58
64023;BME280;50264;52.088;5.296;2023-01-27T09:38:58;102824.0;;;5.25;80.64
64023;BME280;50264;52.088;5.296;2023-01-27T09:40:45;102829.0;;;5.21;81.12
64023;BME280;50264;52.088;5.296;2023-01-27T09:42:49;102832.0;;;5.29;79.94
64023;BME280;50264;52.088;5.296;2023-01-27T09:44:53;102829.0;;;5.41;78.97
64023;BME280;50264;52.088;5.296;2023-01-27T09:48:26;102832.0;;;5.39;78.58
64023;BME280;50264;52.088;5.296;2023-01-27T09:50:38;102826.0;;;5.3;79.86
64023;BME280;50264;52.088;5.296;2023-01-27T09:52:32;102828.0;;;5.23;77.78
64023;BME280;50264;52.088;5.296;2023-01-27T09:54:26;102820.0;;;5.42;79.86
64023;BME280;50264;52.088;5.296;2023-01-27T09:56:35;102820.0;;;5.46;80.24
64023;BME280;50264;52.088;5.296;2023-01-27T09:58:54;102817.0;;;5.46;79.77
64023;BME280;50264;52.088;5.296;2023-01-27T10:00:52;102827.0;;;5.45;79.33
64023;BME280;50264;52.088;5.296;2023-01-27T10:02:55;102821.0;;;5.53;79.8
64023;BME280;50264;52.088;5.296;2023-01-27T10:04:54;102822.0;;;5.6;78.53
64023;BME280;50264;52.088;5.296;2023-01-27T10:08:46;102817.0;;;5.56;78.83
64023;BME280;50264;52.088;5.296;2023-01-27T10:11:17;102828.0;;;5.69;79.34
64023;BME280;50264;52.088;5.296;2023-01-27T10:13:07;102819.0;;;5.61;81.03
64023;BME280;50264;52.088;5.296;2023-01-27T10:14:58;102819.0;;;5.68;80.77
64023;BME280;50264;52.088;5.296;2023-01-27T10:16:50;102822.0;;;5.75;80.16
64023;BME280;50264;52.088;5.296;2023-01-27T10:18:48;102821.0;;;5.73;79.44
64023;BME280;50264;52.088;5.296;2023-01-27T10:20:38;102831.0;;;5.76;78.8
64023;BME280;50264;52.088;5.296;2023-01-27T10:22:31;102829.0;;;5.77;79.94
64023;BME280;50264;52.088;5.296;2023-01-27T10:24:21;102827.0;;;5.74;79.42
64023;BME280;50264;52.088;5.296;2023-01-27T10:26:11;102832.0;;;5.71;79.99
64023;BME280;50264;52.088;5.296;2023-01-27T10:29:37;102834.99999999999;;;5.85;79.74
64023;BME280;50264;52.088;5.296;2023-01-27T10:31:24;102830.0;;;5.91;79.66
64023;BME280;50264;52.088;5.296;2023-01-27T10:33:09;102836.99999999999;;;5.91;78.55
64023;BME280;50264;52.088;5.296;2023-01-27T10:34:58;102841.00000000001;;;5.93;78.24
64023;BME280;50264;52.088;5.296;2023-01-27T10:36:47;102843.0;;;5.87;79.19
64023;BME280;50264;52.088;5.296;2023-01-27T10:40:21;102840.00000000001;;;5.8;80.02
64023;BME280;50264;52.088;5.296;2023-01-27T10:42:06;102838.00000000001;;;5.71;78.36
64023;BME280;50264;52.088;5.296;2023-01-27T10:44:00;102842.0;;;5.84;80.33
64023;BME280;50264;52.088;5.296;2023-01-27T10:45:49;102842.0;;;5.81;79.33
64023;BME280;50264;52.088;5.296;2023-01-27T10:47:36;102842.0;;;5.81;79.16
64023;BME280;50264;52.088;5.296;2023-01-27T10:49:27;102843.0;;;5.62;78.16
64023;BME280;50264;52.088;5.296;2023-01-27T10:51:09;102849.0;;;5.66;78.84
64023;BME280;50264;52.088;5.296;2023-01-27T10:54:40;102847.0;;;5.65;80.52
64023;BME280;50264;52.088;5.296;2023-01-27T10:56:30;102852.0;;;5.69;79.25
64023;BME280;50264;52.088;5.296;2023-01-27T10:58:16;102848.0;;;5.83;79.33
64023;BME280;50264;52.088;5.296;2023-01-27T11:00:00;102843.0;;;5.83;78.83
64023;BME280;50264;52.088;5.296;2023-01-27T11:01:44;102844.0;;;5.75;78.56
64023;BME280;50264;52.088;5.296;2023-01-27T11:05:08;102840.00000000001;;;5.85;78.97
64023;BME280;50264;52.088;5.296;2023-01-27T11:06:49;102845.0;;;5.88;78.19
64023;BME280;50264;52.088;5.296;2023-01-27T11:08:29;102839.00000000001;;;5.83;78.17
64023;BME280;50264;52.088;5.296;2023-01-27T11:10:16;102833.0;;;5.83;77.0
64023;BME280;50264;52.088;5.296;2023-01-27T11:13:34;102839.00000000001;;;5.83;78.05
64023;BME280;50264;52.088;5.296;2023-01-27T11:15:16;102833.0;;;5.97;78.44
64023;BME280;50264;52.088;5.296;2023-01-27T11:17:01;102832.0;;;5.92;77.25
64023;BME280;50264;52.088;5.296;2023-01-27T11:18:39;102828.0;;;5.97;79.12
64023;BME280;50264;52.088;5.296;2023-01-27T11:22:15;102832.0;;;5.93;77.28
64023;BME280;50264;52.088;5.296;2023-01-27T11:23:59;102830.0;;;5.94;77.44
64023;BME280;50264;52.088;5.296;2023-01-27T11:25:51;102829.0;;;5.89;78.14
64023;BME280;50264;52.088;5.296;2023-01-27T11:27:50;102827.0;;;5.93;78.72
64023;BME280;50264;52.088;5.296;2023-01-27T11:29:35;102825.0;;;5.93;78.24
64023;BME280;50264;52.088;5.296;2023-01-27T11:31:20;102827.0;;;5.94;79.92
64023;BME280;50264;52.088;5.296;2023-01-27T11:33:17;102824.0;;;5.98;78.41